createdAt,value
2023-05-06T00:00:25.839Z,216.87
2023-05-06T00:01:25.845Z,217.55
2023-05-06T00:02:26.033Z,216.93
2023-05-06T00:03:26.047Z,216.30
2023-05-06T00:04:26.049Z,214.94
2023-05-06T00:05:26.027Z,217.03
2023-05-06T00:06:26.118Z,217.94
2023-05-06T00:07:26.131Z,216.93
2023-05-06T00:08:26.236Z,216.03
2023-05-06T00:09:26.252Z,216.78
2023-05-06T00:10:26.271Z,217.14
2023-05-06T00:11:26.294Z,215.54
2023-05-06T00:12:26.349Z,217.22
2023-05-06T00:13:26.401Z,218.28
2023-05-06T00:14:26.470Z,217.84
2023-05-06T00:15:26.476Z,216.61
2023-05-06T00:16:26.605Z,218.08
2023-05-06T00:17:26.610Z,216.67
2023-05-06T00:18:26.640Z,216.90
2023-05-06T00:19:26.688Z,218.74
2023-05-06T00:20:26.698Z,216.30
2023-05-06T00:21:26.713Z,217.29
2023-05-06T00:22:26.760Z,215.69
2023-05-06T00:23:26.824Z,217.49
2023-05-06T00:24:26.932Z,215.24
2023-05-06T00:25:26.862Z,215.83
2023-05-06T00:26:26.931Z,216.83
2023-05-06T00:27:26.941Z,215.74
2023-05-06T00:28:27.018Z,215.62
2023-05-06T00:29:27.085Z,216.47
2023-05-06T00:30:27.110Z,216.07
2023-05-06T00:31:27.145Z,213.83
2023-05-06T00:32:27.168Z,214.45
2023-05-06T00:33:27.211Z,216.05
2023-05-06T00:34:27.277Z,216.37
2023-05-06T00:35:27.307Z,216.23
2023-05-06T00:36:27.325Z,217.25
2023-05-06T00:37:27.383Z,217.67
2023-05-06T00:38:27.425Z,218.01
2023-05-06T00:39:27.538Z,216.61
2023-05-06T00:40:27.567Z,215.78
2023-05-06T00:41:27.568Z,216.74
2023-05-06T00:42:27.637Z,217.96
2023-05-06T00:43:27.658Z,217.68
2023-05-06T00:44:27.776Z,215.67
2023-05-06T00:45:27.749Z,214.96
2023-05-06T00:46:27.864Z,217.19
2023-05-06T00:47:27.862Z,216.55
2023-05-06T00:48:27.897Z,219.01
2023-05-06T00:49:27.929Z,215.69
2023-05-06T00:50:28.005Z,216.87
2023-05-06T00:51:28.014Z,216.40
2023-05-06T00:52:28.098Z,217.65
2023-05-06T00:53:28.096Z,217.99
2023-05-06T00:54:28.160Z,216.45
2023-05-06T00:55:28.182Z,216.42
2023-05-06T00:56:28.301Z,217.18
2023-05-06T00:57:28.286Z,216.46
2023-05-06T00:58:28.346Z,217.35
2023-05-06T00:59:28.426Z,217.53
2023-05-06T01:00:28.425Z,217.28
2023-05-06T01:01:28.494Z,216.34
2023-05-06T01:02:36.415Z,216.69
2023-05-06T01:03:29.677Z,216.85
2023-05-06T01:04:28.496Z,216.99
2023-05-06T01:05:28.497Z,217.13
2023-05-06T01:06:28.502Z,216.87
2023-05-06T01:07:28.475Z,216.32
2023-05-06T01:08:28.473Z,215.12
2023-05-06T01:09:28.447Z,217.95
2023-05-06T01:10:28.468Z,213.94
2023-05-06T01:11:28.438Z,216.82
2023-05-06T01:12:28.504Z,216.75
2023-05-06T01:13:28.442Z,215.94
2023-05-06T01:14:28.448Z,218.15
2023-05-06T01:15:28.480Z,215.18
2023-05-06T01:16:28.574Z,216.69
2023-05-06T01:17:28.606Z,214.41
2023-05-06T01:18:28.621Z,217.03
2023-05-06T01:19:28.665Z,217.45
2023-05-06T01:20:28.723Z,216.19
2023-05-06T01:21:28.735Z,217.94
2023-05-06T01:22:28.805Z,216.20
2023-05-06T01:23:28.858Z,216.99
2023-05-06T01:24:28.901Z,214.82
2023-05-06T01:25:28.942Z,215.28
2023-05-06T01:26:28.979Z,215.36
2023-05-06T01:27:29.051Z,215.87
2023-05-06T01:28:29.409Z,217.07
2023-05-06T01:29:29.157Z,213.79
2023-05-06T01:30:29.166Z,215.24
2023-05-06T01:31:29.277Z,214.99
2023-05-06T01:32:29.322Z,214.93
2023-05-06T01:33:29.312Z,215.35
2023-05-06T01:34:29.366Z,215.56
2023-05-06T01:35:29.393Z,216.24
2023-05-06T01:36:29.442Z,217.04
2023-05-06T01:37:29.531Z,216.22
2023-05-06T01:38:29.542Z,216.45
2023-05-06T01:39:29.584Z,217.66
2023-05-06T01:40:29.650Z,216.73
2023-05-06T01:41:29.677Z,215.63
2023-05-06T01:42:29.723Z,213.91
2023-05-06T01:43:29.804Z,214.95
2023-05-06T01:44:29.902Z,217.17
2023-05-06T01:45:29.889Z,214.57
2023-05-06T01:46:29.932Z,213.60
2023-05-06T01:47:30.015Z,215.44
2023-05-06T01:48:30.023Z,216.21
2023-05-06T01:49:30.059Z,214.25
2023-05-06T01:50:30.124Z,215.30
2023-05-06T01:51:30.155Z,215.98
2023-05-06T01:52:30.210Z,213.76
2023-05-06T01:53:30.249Z,214.18
2023-05-06T01:54:30.281Z,215.48
2023-05-06T01:55:30.383Z,213.86
2023-05-06T01:56:30.415Z,215.85
2023-05-06T01:57:30.447Z,214.93
2023-05-06T01:58:30.478Z,217.27
2023-05-06T01:59:30.518Z,216.06
2023-05-06T02:00:30.578Z,214.09
2023-05-06T02:01:30.610Z,214.52
2023-05-06T02:02:30.740Z,216.31
2023-05-06T02:03:30.756Z,215.98
2023-05-06T02:04:30.766Z,215.65
2023-05-06T02:05:30.769Z,217.20
2023-05-06T02:06:30.816Z,216.05
2023-05-06T02:07:30.864Z,214.59
2023-05-06T02:08:30.951Z,215.77
2023-05-06T02:09:30.964Z,214.54
2023-05-06T02:10:31.853Z,215.35
2023-05-06T02:11:31.062Z,216.11
2023-05-06T02:12:31.128Z,217.09
2023-05-06T02:13:31.171Z,216.27
2023-05-06T02:14:31.201Z,216.99
2023-05-06T02:15:31.299Z,215.28
2023-05-06T02:16:31.506Z,211.82
2023-05-06T02:17:31.403Z,215.54
2023-05-06T02:18:31.472Z,214.97
2023-05-06T02:19:31.481Z,214.45
2023-05-06T02:20:31.489Z,215.55
2023-05-06T02:21:31.546Z,215.54
2023-05-06T02:22:31.637Z,213.28
2023-05-06T02:23:31.660Z,214.21
2023-05-06T02:24:31.706Z,214.04
2023-05-06T02:25:31.901Z,214.60
2023-05-06T02:26:31.785Z,213.80
2023-05-06T02:27:31.830Z,212.68
2023-05-06T02:28:31.889Z,213.92
2023-05-06T02:29:31.925Z,214.90
2023-05-06T02:30:31.970Z,212.95
2023-05-06T02:31:32.105Z,214.07
2023-05-06T02:32:32.215Z,217.73
2023-05-06T02:33:32.133Z,213.46
2023-05-06T02:34:32.178Z,213.63
2023-05-06T02:35:32.236Z,215.63
2023-05-06T02:36:32.295Z,215.57
2023-05-06T02:37:32.363Z,213.52
2023-05-06T02:38:32.348Z,213.94
2023-05-06T02:39:32.436Z,213.37
2023-05-06T02:40:32.465Z,214.66
2023-05-06T02:41:32.489Z,214.41
2023-05-06T02:42:32.580Z,213.70
2023-05-06T02:43:32.605Z,214.14
2023-05-06T02:44:32.663Z,216.16
2023-05-06T02:45:32.754Z,215.40
2023-05-06T02:46:32.769Z,215.47
2023-05-06T02:47:32.844Z,215.00
2023-05-06T02:48:32.870Z,214.95
2023-05-06T02:49:32.913Z,215.95
2023-05-06T02:50:32.996Z,215.69
2023-05-06T02:51:33.027Z,215.78
2023-05-06T02:52:33.087Z,214.20
2023-05-06T02:53:33.168Z,216.84
2023-05-06T02:54:33.173Z,213.46
2023-05-06T02:55:33.208Z,215.95
2023-05-06T02:56:33.276Z,213.61
2023-05-06T02:57:33.365Z,215.27
2023-05-06T02:58:33.403Z,214.26
2023-05-06T02:59:33.487Z,213.97
2023-05-06T03:00:33.512Z,217.53
2023-05-06T03:01:33.597Z,215.67
2023-05-06T03:02:33.629Z,212.41
2023-05-06T03:03:33.640Z,214.47
2023-05-06T03:04:33.864Z,214.50
2023-05-06T03:05:33.762Z,213.01
2023-05-06T03:06:33.798Z,215.49
2023-05-06T03:07:33.853Z,215.23
2023-05-06T03:08:33.933Z,216.22
2023-05-06T03:09:33.982Z,215.12
2023-05-06T03:10:34.081Z,213.96
2023-05-06T03:11:34.073Z,215.79
2023-05-06T03:12:34.175Z,213.30
2023-05-06T03:13:34.196Z,215.60
2023-05-06T03:14:34.242Z,213.78
2023-05-06T03:15:34.317Z,215.50
2023-05-06T03:16:34.343Z,214.94
2023-05-06T03:17:34.447Z,212.50
2023-05-06T03:18:34.450Z,216.04
2023-05-06T03:19:34.488Z,215.52
2023-05-06T03:20:34.659Z,216.96
2023-05-06T03:21:34.681Z,215.62
2023-05-06T03:22:34.652Z,215.76
2023-05-06T03:23:34.747Z,215.23
2023-05-06T03:24:34.765Z,214.18
2023-05-06T03:25:34.802Z,215.55
2023-05-06T03:26:34.857Z,212.60
2023-05-06T03:27:34.956Z,214.51
2023-05-06T03:28:34.980Z,212.24
2023-05-06T03:29:35.045Z,215.01
2023-05-06T03:30:35.115Z,213.05
2023-05-06T03:31:35.220Z,214.74
2023-05-06T03:32:35.228Z,213.79
2023-05-06T03:33:35.283Z,214.56
2023-05-06T03:34:35.293Z,214.85
2023-05-06T03:35:35.367Z,213.45
2023-05-06T03:36:35.412Z,214.65
2023-05-06T03:37:35.475Z,210.54
2023-05-06T03:38:35.508Z,210.98
2023-05-06T03:39:35.588Z,213.97
2023-05-06T03:40:35.614Z,213.59
2023-05-06T03:41:35.668Z,214.76
2023-05-06T03:42:35.723Z,212.12
2023-05-06T03:43:35.808Z,212.58
2023-05-06T03:44:35.861Z,212.19
2023-05-06T03:45:35.933Z,215.45
2023-05-06T03:46:36.170Z,212.08
2023-05-06T03:47:36.057Z,216.22
2023-05-06T03:48:36.049Z,215.17
2023-05-06T03:49:36.110Z,214.88
2023-05-06T03:50:36.384Z,214.03
2023-05-06T03:51:36.209Z,212.68
2023-05-06T03:52:36.344Z,213.20
2023-05-06T03:53:36.342Z,212.77
2023-05-06T03:54:36.372Z,212.98
2023-05-06T03:55:36.426Z,214.38
2023-05-06T03:56:36.471Z,213.55
2023-05-06T03:57:36.533Z,212.68
2023-05-06T03:58:36.577Z,213.29
2023-05-06T03:59:36.644Z,214.37
2023-05-06T04:00:36.686Z,215.66
2023-05-06T04:01:36.749Z,213.10
2023-05-06T04:02:36.856Z,210.88
2023-05-06T04:03:36.866Z,212.72
2023-05-06T04:04:36.872Z,213.87
2023-05-06T04:05:36.935Z,214.74
2023-05-06T04:06:36.960Z,213.02
2023-05-06T04:07:36.981Z,213.21
2023-05-06T04:08:37.101Z,212.35
2023-05-06T04:09:37.063Z,210.90
2023-05-06T04:10:37.132Z,214.09
2023-05-06T04:11:37.147Z,211.82
2023-05-06T04:12:37.233Z,213.68
2023-05-06T04:13:37.284Z,215.44
2023-05-06T04:14:37.335Z,213.83
2023-05-06T04:15:37.352Z,211.57
2023-05-06T04:16:37.427Z,211.65
2023-05-06T04:17:37.498Z,212.91
2023-05-06T04:18:37.541Z,211.90
2023-05-06T04:19:37.591Z,212.59
2023-05-06T04:20:37.626Z,213.84
2023-05-06T04:21:37.699Z,212.97
2023-05-06T04:22:37.763Z,214.14
2023-05-06T04:23:37.796Z,212.93
2023-05-06T04:24:37.923Z,213.66
2023-05-06T04:25:37.927Z,211.33
2023-05-06T04:26:37.944Z,214.31
2023-05-06T04:27:37.997Z,213.50
2023-05-06T04:28:38.038Z,213.16
2023-05-06T04:29:38.150Z,212.85
2023-05-06T04:30:38.195Z,211.18
2023-05-06T04:31:38.270Z,212.44
2023-05-06T04:32:38.312Z,212.66
2023-05-06T04:33:38.325Z,211.82
2023-05-06T04:34:38.384Z,213.44
2023-05-06T04:35:38.425Z,213.62
2023-05-06T04:36:40.567Z,212.27
2023-05-06T04:37:38.530Z,213.31
2023-05-06T04:38:38.605Z,210.23
2023-05-06T04:39:38.649Z,213.16
2023-05-06T04:40:38.771Z,211.93
2023-05-06T04:41:38.759Z,212.27
2023-05-06T04:42:38.826Z,214.08
2023-05-06T04:43:38.885Z,211.75
2023-05-06T04:44:38.938Z,213.11
2023-05-06T04:45:39.020Z,212.88
2023-05-06T04:46:39.037Z,212.69
2023-05-06T04:47:39.132Z,212.58
2023-05-06T04:48:39.179Z,212.81
2023-05-06T04:49:39.203Z,211.55
2023-05-06T04:50:39.310Z,212.50
2023-05-06T04:51:39.344Z,212.03
2023-05-06T04:52:39.383Z,214.63
2023-05-06T04:53:39.440Z,213.90
2023-05-06T04:54:39.511Z,212.88
2023-05-06T04:55:39.535Z,212.49
2023-05-06T04:56:39.684Z,208.51
2023-05-06T04:57:39.617Z,214.62
2023-05-06T04:58:39.699Z,212.28
2023-05-06T04:59:39.764Z,211.09
2023-05-06T05:00:39.790Z,211.52
2023-05-06T05:01:39.848Z,212.06
2023-05-06T05:02:39.944Z,210.57
2023-05-06T05:03:39.971Z,211.85
2023-05-06T05:04:40.076Z,211.17
2023-05-06T05:05:40.052Z,213.16
2023-05-06T05:06:40.104Z,214.54
2023-05-06T05:07:40.163Z,210.51
2023-05-06T05:08:40.206Z,211.60
2023-05-06T05:09:40.250Z,211.81
2023-05-06T05:10:40.325Z,212.21
2023-05-06T05:11:40.352Z,210.60
2023-05-06T05:12:40.474Z,209.51
2023-05-06T05:13:40.455Z,212.27
2023-05-06T05:14:40.510Z,210.31
2023-05-06T05:15:40.601Z,211.22
2023-05-06T05:16:40.675Z,209.15
2023-05-06T05:17:40.688Z,210.70
2023-05-06T05:18:40.740Z,211.79
2023-05-06T05:19:40.809Z,211.60
2023-05-06T05:20:40.841Z,210.42
2023-05-06T05:21:40.906Z,210.10
2023-05-06T05:22:40.916Z,212.88
2023-05-06T05:23:40.976Z,211.14
2023-05-06T05:24:41.030Z,210.34
2023-05-06T05:25:41.102Z,209.31
2023-05-06T05:26:41.139Z,211.37
2023-05-06T05:27:41.200Z,210.32
2023-05-06T05:28:41.297Z,212.54
2023-05-06T05:29:41.275Z,209.13
2023-05-06T05:30:41.484Z,208.89
2023-05-06T05:31:41.519Z,208.78
2023-05-06T05:32:41.502Z,212.25
2023-05-06T05:33:41.536Z,210.94
2023-05-06T05:34:41.561Z,211.11
2023-05-06T05:35:41.621Z,211.74
2023-05-06T05:36:41.704Z,208.31
2023-05-06T05:37:41.733Z,209.35
2023-05-06T05:38:41.949Z,211.06
2023-05-06T05:39:41.848Z,209.51
2023-05-06T05:40:41.908Z,210.27
2023-05-06T05:41:41.950Z,211.85
2023-05-06T05:42:42.002Z,211.03
2023-05-06T05:43:42.095Z,210.80
2023-05-06T05:44:42.190Z,212.71
2023-05-06T05:45:42.234Z,210.83
2023-05-06T05:46:42.353Z,209.83
2023-05-06T05:47:42.337Z,209.42
2023-05-06T05:48:42.360Z,209.43
2023-05-06T05:49:42.420Z,208.62
2023-05-06T05:50:42.498Z,206.75
2023-05-06T05:51:42.547Z,210.06
2023-05-06T05:52:42.607Z,211.23
2023-05-06T05:53:42.635Z,208.07
2023-05-06T05:54:42.679Z,209.31
2023-05-06T05:55:42.793Z,212.38
2023-05-06T05:56:42.774Z,210.73
2023-05-06T05:57:42.845Z,210.81
2023-05-06T05:58:42.906Z,208.88
2023-05-06T05:59:42.946Z,208.57
2023-05-06T06:00:43.009Z,207.52
2023-05-06T06:01:43.070Z,208.08
2023-05-06T06:02:43.180Z,210.03
2023-05-06T06:03:43.400Z,209.80
2023-05-06T06:04:43.335Z,209.64
2023-05-06T06:05:43.312Z,210.69
2023-05-06T06:06:43.387Z,210.91
2023-05-06T06:07:43.409Z,208.72
2023-05-06T06:08:43.504Z,210.52
2023-05-06T06:09:43.491Z,210.86
2023-05-06T06:10:43.665Z,209.17
2023-05-06T06:11:43.702Z,209.12
2023-05-06T06:12:43.810Z,208.80
2023-05-06T06:13:43.975Z,208.44
2023-05-06T06:14:43.784Z,209.09
2023-05-06T06:15:43.852Z,210.29
2023-05-06T06:16:44.041Z,210.33
2023-05-06T06:17:44.015Z,210.01
2023-05-06T06:18:44.056Z,208.68
2023-05-06T06:19:44.134Z,209.96
2023-05-06T06:20:44.100Z,209.75
2023-05-06T06:21:44.216Z,209.98
2023-05-06T06:22:44.231Z,207.64
2023-05-06T06:23:44.322Z,210.92
2023-05-06T06:24:44.407Z,209.75
2023-05-06T06:25:44.451Z,208.64
2023-05-06T06:26:44.458Z,207.20
2023-05-06T06:27:44.528Z,208.79
2023-05-06T06:28:44.658Z,206.26
2023-05-06T06:29:44.682Z,208.67
2023-05-06T06:30:44.700Z,208.73
2023-05-06T06:31:44.807Z,210.16
2023-05-06T06:32:44.997Z,208.82
2023-05-06T06:33:44.889Z,211.11
2023-05-06T06:34:44.957Z,208.59
2023-05-06T06:35:44.982Z,209.72
2023-05-06T06:36:45.100Z,207.10
2023-05-06T06:37:45.117Z,208.53
2023-05-06T06:38:45.127Z,210.35
2023-05-06T06:39:45.198Z,211.46
2023-05-06T06:40:45.266Z,209.49
2023-05-06T06:41:45.325Z,208.68
2023-05-06T06:42:45.369Z,208.07
2023-05-06T06:43:45.449Z,207.98
2023-05-06T06:44:45.473Z,208.66
2023-05-06T06:45:45.571Z,209.71
2023-05-06T06:46:45.652Z,208.29
2023-05-06T06:47:45.742Z,210.35
2023-05-06T06:48:45.763Z,210.88
2023-05-06T06:49:45.750Z,209.58
2023-05-06T06:50:45.856Z,207.12
2023-05-06T06:51:45.899Z,207.72
2023-05-06T06:52:46.008Z,206.88
2023-05-06T06:53:46.951Z,205.39
2023-05-06T06:54:46.014Z,210.14
2023-05-06T06:55:46.071Z,206.77
2023-05-06T06:56:46.141Z,205.12
2023-05-06T06:57:46.173Z,208.99
2023-05-06T06:58:46.222Z,208.65
2023-05-06T06:59:46.289Z,208.25
2023-05-06T07:00:46.364Z,211.12
2023-05-06T07:01:46.399Z,207.38
2023-05-06T07:02:46.509Z,209.92
2023-05-06T07:03:47.005Z,206.44
2023-05-06T07:04:46.686Z,207.59
2023-05-06T07:05:46.593Z,208.65
2023-05-06T07:06:46.655Z,208.80
2023-05-06T07:07:46.704Z,207.02
2023-05-06T07:08:46.767Z,208.81
2023-05-06T07:09:46.778Z,209.02
2023-05-06T07:10:46.851Z,209.00
2023-05-06T07:11:46.889Z,209.78
2023-05-06T07:12:46.994Z,209.32
2023-05-06T07:13:47.018Z,209.40
2023-05-06T07:14:47.026Z,209.84
2023-05-06T07:15:47.103Z,207.81
2023-05-06T07:16:49.354Z,206.69
2023-05-06T07:17:47.148Z,210.21
2023-05-06T07:18:47.095Z,207.04
2023-05-06T07:19:47.108Z,210.25
2023-05-06T07:20:47.184Z,210.30
2023-05-06T07:21:47.103Z,210.38
2023-05-06T07:22:47.068Z,209.92
2023-05-06T07:23:47.099Z,210.29
2023-05-06T07:24:47.069Z,209.90
2023-05-06T07:25:47.059Z,209.88
2023-05-06T07:26:47.041Z,208.71
2023-05-06T07:27:47.051Z,207.71
2023-05-06T07:28:47.043Z,208.21
2023-05-06T07:29:47.030Z,207.54
2023-05-06T07:30:47.080Z,205.67
2023-05-06T07:31:47.035Z,206.96
2023-05-06T07:32:47.040Z,207.66
2023-05-06T07:33:47.006Z,208.85
2023-05-06T07:34:46.989Z,207.01
2023-05-06T07:35:47.015Z,202.50
2023-05-06T07:36:47.026Z,206.40
2023-05-06T07:37:46.958Z,207.67
2023-05-06T07:38:46.961Z,207.68
2023-05-06T07:39:46.950Z,206.13
2023-05-06T07:40:46.981Z,203.27
2023-05-06T07:41:46.943Z,204.27
2023-05-06T07:42:46.926Z,205.58
2023-05-06T07:43:46.939Z,203.34
2023-05-06T07:44:46.988Z,205.47
2023-05-06T07:45:46.901Z,202.65
2023-05-06T07:46:46.966Z,205.41
2023-05-06T07:47:46.970Z,203.58
2023-05-06T07:48:46.880Z,207.10
2023-05-06T07:49:46.890Z,204.81
2023-05-06T07:50:46.889Z,202.82
2023-05-06T07:51:46.915Z,203.37
2023-05-06T07:52:47.030Z,202.76
2023-05-06T07:53:47.008Z,202.70
2023-05-06T07:54:47.073Z,201.55
2023-05-06T07:55:47.076Z,205.57
2023-05-06T07:56:47.138Z,204.94
2023-05-06T07:57:47.182Z,204.78
2023-05-06T07:58:47.221Z,207.21
2023-05-06T07:59:47.261Z,206.74
2023-05-06T08:00:47.337Z,207.88
2023-05-06T08:01:47.337Z,205.47
2023-05-06T08:02:47.476Z,205.39
2023-05-06T08:03:47.514Z,208.40
2023-05-06T08:04:48.965Z,207.38
2023-05-06T08:05:47.476Z,207.54
2023-05-06T08:06:47.460Z,207.39
2023-05-06T08:07:47.447Z,204.88
2023-05-06T08:08:47.602Z,203.30
2023-05-06T08:09:47.424Z,206.42
2023-05-06T08:10:47.455Z,204.60
2023-05-06T08:11:47.434Z,206.13
2023-05-06T08:12:47.443Z,203.16
2023-05-06T08:13:47.419Z,204.38
2023-05-06T08:14:47.428Z,203.99
2023-05-06T08:15:47.412Z,205.61
2023-05-06T08:16:47.463Z,206.07
2023-05-06T08:17:47.454Z,203.98
2023-05-06T08:18:47.386Z,204.30
2023-05-06T08:19:47.385Z,206.15
2023-05-06T08:20:47.528Z,207.66
2023-05-06T08:21:47.368Z,206.18
2023-05-06T08:22:47.370Z,202.98
2023-05-06T08:23:47.377Z,204.12
2023-05-06T08:24:48.113Z,205.98
2023-05-06T08:25:47.437Z,205.83
2023-05-06T08:26:47.323Z,203.61
2023-05-06T08:27:47.312Z,206.04
2023-05-06T08:28:47.342Z,202.05
2023-05-06T08:29:47.346Z,203.94
2023-05-06T08:30:47.320Z,204.80
2023-05-06T08:31:47.352Z,204.98
2023-05-06T08:32:47.342Z,205.79
2023-05-06T08:33:47.308Z,205.85
2023-05-06T08:34:47.271Z,206.50
2023-05-06T08:35:47.284Z,204.35
2023-05-06T08:36:47.298Z,204.39
2023-05-06T08:37:47.255Z,208.86
2023-05-06T08:38:47.261Z,204.43
2023-05-06T08:39:47.301Z,204.06
2023-05-06T08:40:47.285Z,205.72
2023-05-06T08:41:47.251Z,203.83
2023-05-06T08:42:47.211Z,205.51
2023-05-06T08:43:47.221Z,202.32
2023-05-06T08:44:47.209Z,202.84
2023-05-06T08:45:47.238Z,204.51
2023-05-06T08:46:47.214Z,204.11
2023-05-06T08:47:48.092Z,205.72
2023-05-06T08:48:47.556Z,202.92
2023-05-06T08:49:47.180Z,205.78
2023-05-06T08:50:47.214Z,203.38
2023-05-06T08:51:47.209Z,205.33
2023-05-06T08:52:47.158Z,205.17
2023-05-06T08:53:47.162Z,202.94
2023-05-06T08:54:47.151Z,204.21
2023-05-06T08:55:47.136Z,206.51
2023-05-06T08:56:47.182Z,203.74
2023-05-06T08:57:47.116Z,205.78
2023-05-06T08:58:47.129Z,207.30
2023-05-06T08:59:47.116Z,205.95
2023-05-06T09:00:47.158Z,204.82
2023-05-06T09:01:47.175Z,204.93
2023-05-06T09:02:47.209Z,206.17
2023-05-06T09:03:47.249Z,205.75
2023-05-06T09:04:47.216Z,205.14
2023-05-06T09:05:47.243Z,203.57
2023-05-06T09:06:47.292Z,205.98
2023-05-06T09:07:47.338Z,204.08
2023-05-06T09:08:47.363Z,205.32
2023-05-06T09:09:47.390Z,204.41
2023-05-06T09:10:47.475Z,205.91
2023-05-06T09:11:47.471Z,205.50
2023-05-06T09:12:47.627Z,202.90
2023-05-06T09:13:47.552Z,202.89
2023-05-06T09:14:47.579Z,205.27
2023-05-06T09:15:47.665Z,201.98
2023-05-06T09:16:47.755Z,204.97
2023-05-06T09:17:47.763Z,204.58
2023-05-06T09:18:47.740Z,203.91
2023-05-06T09:19:47.841Z,205.48
2023-05-06T09:20:47.821Z,204.68
2023-05-06T09:21:47.918Z,204.18
2023-05-06T09:22:47.903Z,207.99
2023-05-06T09:23:47.944Z,203.64
2023-05-06T09:24:47.975Z,204.21
2023-05-06T09:25:48.025Z,204.00
2023-05-06T09:26:48.051Z,204.60
2023-05-06T09:27:48.110Z,204.53
2023-05-06T09:28:48.355Z,203.65
2023-05-06T09:29:48.156Z,205.63
2023-05-06T09:30:48.272Z,205.26
2023-05-06T09:31:48.238Z,204.44
2023-05-06T09:32:48.317Z,203.53
2023-05-06T09:33:48.299Z,202.22
2023-05-06T09:34:48.345Z,203.78
2023-05-06T09:35:48.378Z,203.30
2023-05-06T09:36:48.406Z,202.41
2023-05-06T09:37:48.433Z,204.35
2023-05-06T09:38:48.463Z,203.72
2023-05-06T09:39:48.542Z,203.35
2023-05-06T09:40:48.583Z,201.05
2023-05-06T09:41:48.589Z,199.99
2023-05-06T09:42:48.616Z,203.44
2023-05-06T09:43:48.668Z,203.49
2023-05-06T09:44:48.692Z,202.58
2023-05-06T09:45:48.783Z,201.37
2023-05-06T09:46:48.776Z,203.68
2023-05-06T09:47:48.812Z,204.51
2023-05-06T09:48:48.844Z,204.58
2023-05-06T09:49:48.904Z,202.69
2023-05-06T09:50:48.923Z,202.76
2023-05-06T09:51:48.958Z,202.29
2023-05-06T09:52:49.060Z,205.72
2023-05-06T09:53:49.115Z,201.90
2023-05-06T09:54:49.089Z,202.19
2023-05-06T09:55:49.152Z,201.12
2023-05-06T09:56:49.170Z,202.48
2023-05-06T09:57:49.196Z,203.55
2023-05-06T09:58:49.247Z,199.92
2023-05-06T09:59:49.274Z,200.45
2023-05-06T10:00:49.364Z,201.22
2023-05-06T10:01:49.380Z,204.36
2023-05-06T10:02:49.508Z,206.92
2023-05-06T10:03:49.549Z,203.92
2023-05-06T10:04:49.654Z,201.36
2023-05-06T10:05:49.476Z,204.10
2023-05-06T10:06:49.530Z,204.12
2023-05-06T10:07:49.543Z,204.17
2023-05-06T10:08:49.619Z,202.61
2023-05-06T10:09:49.642Z,204.88
2023-05-06T10:10:49.649Z,204.24
2023-05-06T10:11:49.676Z,204.53
2023-05-06T10:12:49.707Z,204.85
2023-05-06T10:13:49.764Z,203.03
2023-05-06T10:14:49.784Z,204.26
2023-05-06T10:15:49.845Z,203.47
2023-05-06T10:16:49.865Z,205.75
2023-05-06T10:17:49.983Z,203.91
2023-05-06T10:18:49.904Z,203.85
2023-05-06T10:19:49.946Z,204.93
2023-05-06T10:20:49.987Z,203.54
2023-05-06T10:21:49.998Z,203.76
2023-05-06T10:22:50.019Z,203.82
2023-05-06T10:23:50.075Z,204.49
2023-05-06T10:24:50.097Z,202.08
2023-05-06T10:25:50.141Z,203.59
2023-05-06T10:26:50.133Z,203.81
2023-05-06T10:27:50.172Z,204.26
2023-05-06T10:28:50.233Z,203.35
2023-05-06T10:29:50.240Z,205.25
2023-05-06T10:30:51.069Z,202.69
2023-05-06T10:31:50.321Z,204.68
2023-05-06T10:32:50.550Z,205.05
2023-05-06T10:33:51.560Z,203.08
2023-05-06T10:34:50.356Z,203.03
2023-05-06T10:35:50.397Z,203.81
2023-05-06T10:36:50.439Z,204.46
2023-05-06T10:37:50.481Z,206.80
2023-05-06T10:38:50.504Z,204.98
2023-05-06T10:39:50.492Z,208.75
2023-05-06T10:40:50.539Z,203.34
2023-05-06T10:41:50.619Z,204.38
2023-05-06T10:42:50.614Z,202.56
2023-05-06T10:43:50.623Z,205.03
2023-05-06T10:44:50.624Z,203.64
2023-05-06T10:45:50.700Z,204.71
2023-05-06T10:46:50.670Z,205.04
2023-05-06T10:47:50.709Z,203.74
2023-05-06T10:48:50.812Z,204.94
2023-05-06T10:49:50.737Z,204.22
2023-05-06T10:50:50.801Z,205.02
2023-05-06T10:51:50.845Z,204.97
2023-05-06T10:52:50.842Z,205.22
2023-05-06T10:53:50.849Z,203.81
2023-05-06T10:54:51.136Z,202.48
2023-05-06T10:55:50.910Z,204.50
2023-05-06T10:56:50.987Z,204.31
2023-05-06T10:57:50.927Z,206.15
2023-05-06T10:58:50.949Z,202.76
2023-05-06T10:59:50.968Z,205.42
2023-05-06T11:00:51.103Z,204.97
2023-05-06T11:01:51.001Z,202.32
2023-05-06T11:02:51.089Z,204.86
2023-05-06T11:03:51.056Z,201.82
2023-05-06T11:04:51.129Z,204.20
2023-05-06T11:05:51.102Z,204.22
2023-05-06T11:06:51.108Z,204.56
2023-05-06T11:07:51.117Z,206.33
2023-05-06T11:08:51.149Z,205.24
2023-05-06T11:09:51.149Z,206.88
2023-05-06T11:10:51.173Z,202.37
2023-05-06T11:11:51.200Z,206.97
2023-05-06T11:12:51.297Z,207.80
2023-05-06T11:13:51.280Z,204.13
2023-05-06T11:14:51.263Z,205.41
2023-05-06T11:15:51.280Z,205.40
2023-05-06T11:16:51.419Z,205.36
2023-05-06T11:17:51.366Z,203.69
2023-05-06T11:18:51.360Z,204.79
2023-05-06T11:19:51.372Z,204.82
2023-05-06T11:20:51.378Z,206.06
2023-05-06T11:21:51.407Z,204.23
2023-05-06T11:22:51.397Z,205.23
2023-05-06T11:23:51.424Z,205.27
2023-05-06T11:24:51.462Z,204.72
2023-05-06T11:25:51.443Z,205.72
2023-05-06T11:26:51.470Z,206.04
2023-05-06T11:27:51.476Z,204.59
2023-05-06T11:28:51.506Z,205.20
2023-05-06T11:29:51.544Z,205.25
2023-05-06T11:30:52.146Z,207.26
2023-05-06T11:31:51.572Z,206.75
2023-05-06T11:32:51.576Z,204.48
2023-05-06T11:33:51.594Z,205.65
2023-05-06T11:34:51.592Z,205.47
2023-05-06T11:35:51.602Z,205.45
2023-05-06T11:36:51.675Z,205.15
2023-05-06T11:37:51.632Z,205.26
2023-05-06T11:38:51.664Z,205.04
2023-05-06T11:39:51.671Z,206.27
2023-05-06T11:40:51.672Z,206.54
2023-05-06T11:41:51.704Z,206.05
2023-05-06T11:42:51.711Z,203.77
2023-05-06T11:43:51.765Z,206.11
2023-05-06T11:44:51.756Z,203.33
2023-05-06T11:45:51.766Z,206.01
2023-05-06T11:46:51.805Z,204.96
2023-05-06T11:47:51.787Z,203.86
2023-05-06T11:48:51.780Z,205.10
2023-05-06T11:49:51.796Z,205.05
2023-05-06T11:50:51.822Z,205.11
2023-05-06T11:51:51.840Z,205.62
2023-05-06T11:52:51.959Z,203.73
2023-05-06T11:53:51.864Z,204.22
2023-05-06T11:54:51.852Z,207.67
2023-05-06T11:55:51.913Z,205.83
2023-05-06T11:56:51.869Z,206.77
2023-05-06T11:57:51.899Z,206.32
2023-05-06T11:58:51.899Z,204.57
2023-05-06T11:59:51.932Z,203.61
2023-05-06T12:00:52.116Z,202.67
2023-05-06T12:01:51.915Z,204.47
2023-05-06T12:02:51.983Z,206.52
2023-05-06T12:03:52.043Z,206.09
2023-05-06T12:04:52.008Z,203.83
2023-05-06T12:05:51.990Z,207.35
2023-05-06T12:06:51.984Z,205.56
2023-05-06T12:07:51.985Z,205.76
2023-05-06T12:08:52.062Z,207.85
2023-05-06T12:09:52.018Z,205.87
2023-05-06T12:10:52.027Z,206.85
2023-05-06T12:11:52.010Z,205.47
2023-05-06T12:12:52.028Z,204.67
2023-05-06T12:13:52.041Z,205.94
2023-05-06T12:14:52.001Z,206.15
2023-05-06T12:15:52.064Z,205.33
2023-05-06T12:16:53.007Z,205.38
2023-05-06T12:17:52.314Z,205.39
2023-05-06T12:18:52.285Z,206.76
2023-05-06T12:19:52.262Z,205.36
2023-05-06T12:20:52.281Z,208.52
2023-05-06T12:21:52.334Z,208.14
2023-05-06T12:22:54.342Z,204.88
2023-05-06T12:23:52.356Z,209.70
2023-05-06T12:24:52.261Z,207.15
2023-05-06T12:25:52.280Z,206.10
2023-05-06T12:26:52.279Z,207.44
2023-05-06T12:27:52.247Z,206.46
2023-05-06T12:28:52.284Z,205.69